Time;durP1;ratioP1;P1;durP2;ratioP2;P2;SDS_P1;SDS_P2;PMS_P1;PMS_P2;Temp;Humidity;BMP_temperature;BMP_pressure;BME280_temperature;BME280_humidity;BME280_pressure;Samples;Min_cycle;Max_cycle;Signal;HPM_P1;HPM_P2
2023/06/21 00:02:09;;;;;;;13.57;11.75;;;;;;;;;;4943299;28;20547;-62
2023/06/21 00:04:34;;;;;;;16.10;12.15;;;;;;;;;;4949083;28;20027;-63
2023/06/21 00:06:59;;;;;;;16.40;13.35;;;;;;;;;;4944778;28;20063;-62
2023/06/21 00:09:24;;;;;;;14.88;12.10;;;;;;;;;;4938279;29;20451;-63
2023/06/21 00:11:49;;;;;;;15.10;12.13;;;;;;;;;;4944223;28;20015;-63
2023/06/21 00:14:14;;;;;;;16.90;12.23;;;;;;;;;;4949077;28;20039;-63
2023/06/21 00:16:40;;;;;;;13.27;11.32;;;;;;;;;;4952779;28;20059;-61
2023/06/21 00:19:06;;;;;;;14.32;11.88;;;;;;;;;;4945748;28;20555;-64
2023/06/21 00:21:31;;;;;;;14.63;12.07;;;;;;;;;;4951997;28;20439;-63
2023/06/21 00:23:56;;;;;;;13.17;11.37;;;;;;;;;;4941756;28;20023;-61
2023/06/21 00:26:21;;;;;;;14.10;11.50;;;;;;;;;;4948862;29;20030;-63
2023/06/21 00:28:47;;;;;;;14.75;11.90;;;;;;;;;;4948993;28;20483;-62
2023/06/21 00:31:12;;;;;;;15.40;11.75;;;;;;;;;;4947276;29;20160;-64
2023/06/21 00:33:38;;;;;;;15.63;11.47;;;;;;;;;;4936003;28;20809;-63
2023/06/21 00:36:03;;;;;;;15.00;12.15;;;;;;;;;;4944024;28;20518;-63
2023/06/21 00:38:34;;;;;;;15.60;12.35;;;;;;;;;;4945646;28;20046;-63
2023/06/21 00:41:00;;;;;;;14.77;11.57;;;;;;;;;;4941666;29;20048;-63
2023/06/21 00:43:25;;;;;;;13.38;11.70;;;;;;;;;;4950091;29;20035;-62
2023/06/21 00:45:50;;;;;;;15.27;12.33;;;;;;;;;;4947924;28;20023;-62
2023/06/21 00:48:15;;;;;;;15.13;12.90;;;;;;;;;;4944100;28;20483;-62
2023/06/21 00:50:41;;;;;;;12.82;10.93;;;;;;;;;;4941937;29;20127;-64
2023/06/21 00:53:07;;;;;;;14.82;12.23;;;;;;;;;;4936337;28;20055;-61
2023/06/21 00:55:32;;;;;;;16.23;12.65;;;;;;;;;;4945655;28;20026;-63
2023/06/21 00:57:57;;;;;;;16.23;12.77;;;;;;;;;;4948599;29;20023;-64
2023/06/21 01:00:24;;;;;;;15.10;11.65;;;;;;;;;;4946926;28;20483;-63
2023/06/21 01:02:51;;;;;;;14.52;12.07;;;;;;;;;;4949931;28;20026;-63
2023/06/21 01:05:16;;;;;;;16.15;12.23;;;;;;;;;;4947026;28;20027;-63
2023/06/21 01:07:45;;;;;;;16.23;11.60;;;;;;;;;;4948057;28;20035;-63
2023/06/21 01:10:27;;;;;;;13.20;11.52;;;;;;;;;;4940746;28;20117;-63
2023/06/21 01:12:52;;;;;;;13.95;12.07;;;;;;;;;;4950630;28;20047;-63
2023/06/21 01:15:26;;;;;;;13.32;11.38;;;;;;;;;;4946546;28;20086;-64
2023/06/21 01:17:52;;;;;;;14.32;11.43;;;;;;;;;;4949186;28;20557;-63
2023/06/21 01:20:24;;;;;;;14.38;11.60;;;;;;;;;;4947009;28;20075;-64
2023/06/21 01:23:09;;;;;;;13.68;11.10;;;;;;;;;;4939035;28;20024;-64
2023/06/21 01:25:37;;;;;;;14.07;11.63;;;;;;;;;;4941333;28;20508;-62
2023/06/21 01:28:15;;;;;;;13.85;11.82;;;;;;;;;;4948289;28;20054;-62
2023/06/21 01:30:40;;;;;;;14.35;12.10;;;;;;;;;;4947968;28;20396;-62
2023/06/21 01:33:07;;;;;;;16.40;12.48;;;;;;;;;;4944166;28;20030;-62
2023/06/21 01:35:32;;;;;;;14.93;12.05;;;;;;;;;;4948747;28;20027;-61
2023/06/21 01:37:58;;;;;;;14.97;12.37;;;;;;;;;;4943200;28;20042;-61
2023/06/21 01:40:24;;;;;;;17.17;12.35;;;;;;;;;;4939417;28;20027;-61
2023/06/21 01:42:49;;;;;;;13.70;12.05;;;;;;;;;;4946738;29;20019;-63
2023/06/21 01:45:14;;;;;;;13.82;12.02;;;;;;;;;;4948292;28;20386;-62
2023/06/21 01:47:41;;;;;;;14.77;12.67;;;;;;;;;;4945368;29;20029;-62
2023/06/21 01:50:08;;;;;;;15.70;12.15;;;;;;;;;;4944662;29;20091;-61
2023/06/21 01:52:34;;;;;;;14.93;11.82;;;;;;;;;;4943792;28;20042;-63
2023/06/21 01:54:59;;;;;;;14.85;11.52;;;;;;;;;;4944732;28;20032;-62
2023/06/21 01:57:25;;;;;;;13.83;11.70;;;;;;;;;;4948034;29;20058;-63
2023/06/21 01:59:50;;;;;;;13.70;11.40;;;;;;;;;;4947267;28;20341;-63
2023/06/21 02:02:16;;;;;;;14.85;11.88;;;;;;;;;;4946163;29;20024;-63
2023/06/21 02:04:43;;;;;;;16.00;11.98;;;;;;;;;;4955071;28;20039;-63
2023/06/21 02:07:08;;;;;;;13.95;10.77;;;;;;;;;;4946661;28;20094;-63
2023/06/21 02:09:33;;;;;;;15.10;10.15;;;;;;;;;;4945447;28;20480;-62
2023/06/21 02:12:00;;;;;;;12.80;9.53;;;;;;;;;;4946850;29;20275;-63
2023/06/21 02:14:25;;;;;;;12.60;9.93;;;;;;;;;;4948825;28;20451;-62
2023/06/21 02:16:50;;;;;;;14.00;9.13;;;;;;;;;;4950138;28;20212;-63
2023/06/21 02:19:15;;;;;;;13.60;8.50;;;;;;;;;;4946765;28;20016;-62
2023/06/21 02:21:40;;;;;;;12.20;9.13;;;;;;;;;;4940147;28;20123;-62
2023/06/21 02:24:06;;;;;;;13.55;8.90;;;;;;;;;;4948129;28;20051;-62
2023/06/21 02:26:31;;;;;;;14.53;8.80;;;;;;;;;;4949290;28;20019;-63
2023/06/21 02:28:56;;;;;;;15.27;9.40;;;;;;;;;;4946364;28;20024;-62
2023/06/21 02:31:22;;;;;;;12.00;7.90;;;;;;;;;;4952796;28;20057;-63
2023/06/21 02:33:48;;;;;;;11.57;7.90;;;;;;;;;;4947617;28;20020;-63
2023/06/21 02:36:14;;;;;;;11.27;7.35;;;;;;;;;;4948161;28;20368;-61
2023/06/21 02:38:39;;;;;;;10.30;7.10;;;;;;;;;;4952534;28;20555;-62
2023/06/21 02:41:05;;;;;;;10.63;7.50;;;;;;;;;;4951784;29;20026;-62
2023/06/21 02:43:30;;;;;;;;;;;;;;;;;;4935874;29;20015;-63
2023/06/21 02:45:56;;;;;;;10.30;6.63;;;;;;;;;;4936011;29;19907;-62
2023/06/21 02:48:21;;;;;;;10.27;6.85;;;;;;;;;;4936053;29;20450;-62
2023/06/21 02:50:46;;;;;;;10.27;6.10;;;;;;;;;;4949130;28;20027;-63
2023/06/21 02:53:11;;;;;;;10.05;7.03;;;;;;;;;;4954613;28;20064;-62
2023/06/21 02:55:37;;;;;;;12.60;7.88;;;;;;;;;;4952599;28;20566;-63
2023/06/21 02:58:02;;;;;;;12.15;6.57;;;;;;;;;;4942992;28;20141;-63
2023/06/21 03:00:31;;;;;;;11.43;6.87;;;;;;;;;;4954807;29;20043;-62
2023/06/21 03:03:00;;;;;;;11.18;7.10;;;;;;;;;;4946954;28;20046;-62
2023/06/21 03:05:28;;;;;;;10.02;6.55;;;;;;;;;;4944831;28;20031;-63
2023/06/21 03:07:54;;;;;;;10.85;7.30;;;;;;;;;;4950243;28;20067;-63
2023/06/21 03:10:22;;;;;;;10.82;6.90;;;;;;;;;;4954488;28;20048;-62
2023/06/21 03:12:47;;;;;;;11.40;7.30;;;;;;;;;;4950280;28;20031;-63
2023/06/21 03:15:12;;;;;;;11.52;6.80;;;;;;;;;;4952456;29;20019;-62
2023/06/21 03:17:38;;;;;;;11.47;7.13;;;;;;;;;;4954662;28;20717;-62
2023/06/21 03:20:08;;;;;;;;;;;;;;;;;;4954622;28;20038;-63
2023/06/21 03:22:33;;;;;;;10.55;7.07;;;;;;;;;;4952073;28;19910;-64
2023/06/21 03:24:58;;;;;;;11.27;6.70;;;;;;;;;;4954370;28;20431;-63
2023/06/21 03:27:23;;;;;;;10.48;6.63;;;;;;;;;;4943493;28;20503;-63
2023/06/21 03:29:48;;;;;;;10.60;7.05;;;;;;;;;;4941495;29;20022;-63
2023/06/21 03:32:14;;;;;;;12.38;6.80;;;;;;;;;;4939137;29;20024;-64
2023/06/21 03:34:39;;;;;;;11.00;6.68;;;;;;;;;;4942546;29;20028;-63
2023/06/21 03:37:05;;;;;;;13.60;6.97;;;;;;;;;;4950112;28;20546;-63
2023/06/21 03:39:31;;;;;;;9.82;6.88;;;;;;;;;;4944218;28;20071;-62
2023/06/21 03:41:56;;;;;;;11.97;7.27;;;;;;;;;;4949301;28;20435;-62
2023/06/21 03:44:21;;;;;;;10.25;6.97;;;;;;;;;;4947554;28;20451;-63
2023/06/21 03:46:46;;;;;;;16.40;7.72;;;;;;;;;;4950080;28;20020;-62
2023/06/21 03:49:11;;;;;;;14.60;6.97;;;;;;;;;;4951458;29;20055;-63
2023/06/21 03:51:36;;;;;;;13.33;7.17;;;;;;;;;;4945915;29;20023;-63
2023/06/21 03:54:02;;;;;;;12.67;8.33;;;;;;;;;;4945275;28;20027;-63
2023/06/21 03:56:28;;;;;;;14.02;7.35;;;;;;;;;;4949494;28;20059;-63
2023/06/21 03:58:53;;;;;;;13.05;7.53;;;;;;;;;;4946704;28;20036;-64
2023/06/21 04:01:18;;;;;;;11.40;7.43;;;;;;;;;;4944287;28;20027;-63
2023/06/21 04:03:43;;;;;;;11.90;7.07;;;;;;;;;;4949705;28;20051;-62
2023/06/21 04:06:08;;;;;;;11.52;6.90;;;;;;;;;;4943708;29;20074;-62
2023/06/21 04:08:34;;;;;;;10.93;7.30;;;;;;;;;;4945111;28;20518;-61
2023/06/21 04:11:00;;;;;;;10.90;7.43;;;;;;;;;;4948896;29;20019;-61
2023/06/21 04:13:25;;;;;;;10.90;8.25;;;;;;;;;;4947745;28;20023;-63
2023/06/21 04:15:50;;;;;;;11.53;8.10;;;;;;;;;;4953883;28;20035;-62
2023/06/21 04:18:15;;;;;;;11.07;7.70;;;;;;;;;;4945617;28;20032;-62
2023/06/21 04:20:40;;;;;;;12.52;9.10;;;;;;;;;;4949350;28;20019;-62
2023/06/21 04:23:05;;;;;;;11.20;8.33;;;;;;;;;;4950038;28;20019;-63
2023/06/21 04:25:30;;;;;;;15.45;9.23;;;;;;;;;;4953368;28;20685;-63
2023/06/21 04:27:56;;;;;;;13.50;8.63;;;;;;;;;;4949708;28;20031;-64
2023/06/21 04:30:21;;;;;;;16.45;9.60;;;;;;;;;;4946629;28;20038;-64
2023/06/21 04:32:46;;;;;;;11.88;9.25;;;;;;;;;;4941220;28;20533;-63
2023/06/21 04:35:15;;;;;;;13.17;9.80;;;;;;;;;;4944554;28;20483;-64
2023/06/21 04:37:44;;;;;;;13.40;9.50;;;;;;;;;;4940880;29;20027;-62
2023/06/21 04:40:11;;;;;;;12.82;9.48;;;;;;;;;;4944437;29;20031;-64
2023/06/21 04:42:37;;;;;;;14.90;8.88;;;;;;;;;;4939219;28;20028;-63
2023/06/21 04:45:02;;;;;;;13.13;9.18;;;;;;;;;;4938212;28;20051;-65
2023/06/21 04:47:28;;;;;;;11.73;9.43;;;;;;;;;;4937970;28;20027;-66
2023/06/21 04:49:53;;;;;;;11.35;9.52;;;;;;;;;;4936902;28;20383;-65
2023/06/21 04:52:18;;;;;;;;;;;;;;;;;;4935112;28;20042;-64
2023/06/21 04:54:43;;;;;;;16.60;9.23;;;;;;;;;;4936422;29;20009;-63
2023/06/21 04:57:12;;;;;;;12.30;8.70;;;;;;;;;;4942822;28;20047;-64
2023/06/21 04:59:37;;;;;;;16.00;9.75;;;;;;;;;;4943110;28;20024;-65
2023/06/21 05:02:03;;;;;;;;;;;;;;;;;;4949297;28;20094;-65
2023/06/21 05:04:28;;;;;;;17.90;8.63;;;;;;;;;;4945719;29;19914;-64
2023/06/21 05:06:53;;;;;;;;;;;;;;;;;;4935772;29;20033;-65
2023/06/21 05:09:18;;;;;;;12.20;6.63;;;;;;;;;;4936685;28;19914;-64
2023/06/21 05:11:43;;;;;;;11.20;5.03;;;;;;;;;;4940978;28;20031;-64
2023/06/21 05:14:10;;;;;;;8.68;5.28;;;;;;;;;;4943095;29;20026;-63
2023/06/21 05:16:35;;;;;;;10.75;5.50;;;;;;;;;;4941681;28;20032;-65
2023/06/21 05:19:00;;;;;;;;;;;;;;;;;;4936783;29;20161;-64
2023/06/21 05:21:25;;;;;;;9.95;3.83;;;;;;;;;;4945923;28;20367;-63
2023/06/21 05:23:50;;;;;;;9.43;3.63;;;;;;;;;;4948604;28;20069;-64
2023/06/21 05:26:15;;;;;;;11.52;3.30;;;;;;;;;;4943184;28;20031;-64
2023/06/21 05:28:40;;;;;;;7.65;3.20;;;;;;;;;;4942174;28;20380;-63
2023/06/21 05:31:06;;;;;;;7.83;3.33;;;;;;;;;;4944513;28;20023;-63
2023/06/21 05:33:31;;;;;;;9.52;3.40;;;;;;;;;;4943795;28;20045;-65
2023/06/21 05:35:56;;;;;;;7.60;3.23;;;;;;;;;;4940016;28;20090;-64
2023/06/21 05:38:21;;;;;;;11.10;2.92;;;;;;;;;;4948839;28;20039;-63
2023/06/21 05:40:46;;;;;;;10.73;3.60;;;;;;;;;;4945588;28;20911;-65
2023/06/21 05:43:11;;;;;;;8.37;2.80;;;;;;;;;;4945924;28;20030;-65
2023/06/21 05:45:38;;;;;;;10.13;3.67;;;;;;;;;;4940405;29;20032;-64
2023/06/21 05:48:03;;;;;;;8.07;3.67;;;;;;;;;;4944620;29;20023;-65
2023/06/21 05:50:30;;;;;;;8.63;3.92;;;;;;;;;;4941963;28;20106;-65
2023/06/21 05:52:55;;;;;;;10.43;4.43;;;;;;;;;;4945533;28;20487;-64
2023/06/21 05:55:20;;;;;;;7.95;4.10;;;;;;;;;;4944727;28;20090;-63
2023/06/21 05:57:46;;;;;;;9.57;4.05;;;;;;;;;;4944617;28;20041;-63
2023/06/21 06:00:11;;;;;;;12.32;3.85;;;;;;;;;;4944801;28;20483;-63
2023/06/21 06:02:36;;;;;;;8.70;4.07;;;;;;;;;;4951724;29;20027;-63
2023/06/21 06:05:01;;;;;;;9.68;3.63;;;;;;;;;;4944603;28;20062;-64
2023/06/21 06:07:27;;;;;;;8.33;3.43;;;;;;;;;;4944240;28;20035;-64
2023/06/21 06:09:52;;;;;;;7.87;3.57;;;;;;;;;;4952105;28;20391;-65
2023/06/21 06:12:21;;;;;;;7.30;3.97;;;;;;;;;;4951966;28;20099;-65
2023/06/21 06:14:47;;;;;;;8.40;3.75;;;;;;;;;;4952056;28;20406;-64
2023/06/21 06:17:12;;;;;;;8.30;3.70;;;;;;;;;;4951915;28;20035;-63
2023/06/21 06:19:37;;;;;;;11.13;4.23;;;;;;;;;;4952276;28;20155;-63
2023/06/21 06:22:02;;;;;;;9.20;4.25;;;;;;;;;;4957756;28;20458;-63
2023/06/21 06:24:27;;;;;;;9.23;4.07;;;;;;;;;;4958711;28;20074;-64
2023/06/21 06:26:53;;;;;;;6.37;4.03;;;;;;;;;;4933584;28;20514;-64
2023/06/21 06:29:19;;;;;;;7.47;3.78;;;;;;;;;;4939452;29;20027;-64
2023/06/21 06:31:44;;;;;;;8.87;4.30;;;;;;;;;;4948624;28;20022;-64
2023/06/21 06:34:09;;;;;;;8.20;4.30;;;;;;;;;;4966676;28;20022;-63
2023/06/21 06:36:34;;;;;;;9.05;4.20;;;;;;;;;;4975635;28;20483;-65
2023/06/21 06:39:00;;;;;;;7.03;4.47;;;;;;;;;;4975947;28;20050;-64
2023/06/21 06:41:25;;;;;;;8.23;4.13;;;;;;;;;;4961340;28;20447;-64
2023/06/21 06:43:50;;;;;;;8.87;4.37;;;;;;;;;;4950129;28;20033;-64
2023/06/21 06:46:15;;;;;;;;;;;;;;;;;;4952749;28;20032;-64
2023/06/21 06:48:40;;;;;;;8.30;4.07;;;;;;;;;;4947550;29;20363;-64
2023/06/21 06:51:05;;;;;;;;;;;;;;;;;;4960545;28;20018;-65
2023/06/21 06:53:31;;;;;;;9.20;4.50;;;;;;;;;;4945741;28;20013;-64
2023/06/21 06:55:56;;;;;;;;;;;;;;;;;;4947321;28;20391;-64
2023/06/21 06:58:21;;;;;;;7.15;4.38;;;;;;;;;;4946562;28;20284;-65
2023/06/21 07:00:47;;;;;;;7.35;4.25;;;;;;;;;;4949218;28;20027;-64
2023/06/21 07:03:12;;;;;;;6.82;4.05;;;;;;;;;;4953362;28;20031;-64
2023/06/21 07:05:38;;;;;;;;;;;;;;;;;;4950496;28;20158;-64
2023/06/21 07:08:04;;;;;;;8.75;4.60;;;;;;;;;;4949337;28;20270;-65
2023/06/21 07:10:29;;;;;;;;;;;;;;;;;;4966610;28;20027;-63
2023/06/21 07:12:54;;;;;;;9.50;4.70;;;;;;;;;;4973437;28;20354;-65
2023/06/21 07:15:19;;;;;;;8.15;4.20;;;;;;;;;;4974015;28;20485;-65
2023/06/21 07:17:44;;;;;;;8.20;4.15;;;;;;;;;;4973643;28;20034;-65
2023/06/21 07:20:10;;;;;;;7.38;4.28;;;;;;;;;;4961888;28;20027;-65
2023/06/21 07:22:35;;;;;;;8.68;4.50;;;;;;;;;;4956317;28;20486;-63
2023/06/21 07:25:00;;;;;;;8.00;4.43;;;;;;;;;;4966270;28;20114;-65
2023/06/21 07:27:26;;;;;;;;;;;;;;;;;;4974801;28;20434;-64
2023/06/21 07:29:51;;;;;;;9.35;4.32;;;;;;;;;;4973627;28;19912;-64
2023/06/21 07:32:16;;;;;;;;;;;;;;;;;;4961423;28;20098;-65
2023/06/21 07:34:41;;;;;;;7.20;4.47;;;;;;;;;;4959493;28;19917;-64
2023/06/21 07:37:07;;;;;;;9.95;4.45;;;;;;;;;;4970502;28;20110;-64
2023/06/21 07:39:32;;;;;;;;;;;;;;;;;;4974075;28;20027;-65
2023/06/21 07:42:01;;;;;;;8.82;5.07;;;;;;;;;;4973136;28;19921;-63
2023/06/21 07:44:26;;;;;;;7.85;4.45;;;;;;;;;;4938960;28;20028;-63
2023/06/21 07:46:52;;;;;;;;;;;;;;;;;;4954819;28;20423;-64
2023/06/21 07:49:17;;;;;;;8.75;4.40;;;;;;;;;;4965479;28;19913;-65
2023/06/21 07:51:42;;;;;;;;;;;;;;;;;;4973500;28;20375;-64
2023/06/21 07:54:07;;;;;;;8.98;4.47;;;;;;;;;;4972682;28;19914;-65
2023/06/21 07:56:33;;;;;;;10.43;4.65;;;;;;;;;;4968448;28;20387;-65
2023/06/21 07:58:58;;;;;;;9.18;4.47;;;;;;;;;;4959383;28;20039;-64
2023/06/21 08:01:23;;;;;;;9.07;4.53;;;;;;;;;;4972251;28;20058;-66
2023/06/21 08:03:48;;;;;;;9.27;4.90;;;;;;;;;;4972488;28;20360;-64
2023/06/21 08:06:13;;;;;;;7.23;4.30;;;;;;;;;;4973015;28;20018;-64
2023/06/21 08:08:39;;;;;;;;;;;;;;;;;;4973586;28;20197;-63
2023/06/21 08:11:04;;;;;;;7.60;4.30;;;;;;;;;;4966950;28;20340;-63
2023/06/21 08:13:29;;;;;;;;;;;;;;;;;;4962510;28;20030;-63
2023/06/21 08:15:54;;;;;;;8.57;4.30;;;;;;;;;;4972936;28;19913;-64
2023/06/21 08:18:19;;;;;;;7.97;4.32;;;;;;;;;;4965019;28;20467;-64
2023/06/21 08:20:44;;;;;;;;;;;;;;;;;;4954128;28;20035;-64
2023/06/21 08:23:09;;;;;;;6.70;4.35;;;;;;;;;;4952653;28;19910;-63
2023/06/21 08:25:35;;;;;;;8.07;4.45;;;;;;;;;;4947000;28;20023;-63
2023/06/21 08:28:00;;;;;;;6.32;3.85;;;;;;;;;;4939875;29;20042;-63
2023/06/21 08:30:26;;;;;;;7.90;4.45;;;;;;;;;;4961061;28;20027;-64
2023/06/21 08:32:51;;;;;;;;;;;;;;;;;;4966949;28;20081;-65
2023/06/21 08:35:16;;;;;;;8.57;4.25;;;;;;;;;;4972508;28;19918;-65
2023/06/21 08:37:52;;;;;;;8.00;4.93;;;;;;;;;;4955610;28;20134;-64
2023/06/21 08:40:17;;;;;;;11.02;4.70;;;;;;;;;;4964410;28;20023;-63
2023/06/21 08:42:43;;;;;;;10.98;4.70;;;;;;;;;;4972517;28;20074;-64
2023/06/21 08:45:08;;;;;;;9.17;5.00;;;;;;;;;;4963433;28;20020;-63
2023/06/21 08:47:35;;;;;;;10.23;4.80;;;;;;;;;;4947702;28;20032;-64
2023/06/21 08:50:00;;;;;;;8.43;4.53;;;;;;;;;;4934552;29;20035;-65
2023/06/21 08:52:27;;;;;;;10.05;4.45;;;;;;;;;;4956285;28;20027;-64
2023/06/21 08:55:03;;;;;;;10.05;4.32;;;;;;;;;;4968468;28;20090;-65
2023/06/21 08:57:32;;;;;;;11.13;4.53;;;;;;;;;;4948459;28;20035;-65
2023/06/21 08:59:59;;;;;;;8.82;4.60;;;;;;;;;;4934999;29;20020;-64
2023/06/21 09:02:27;;;;;;;9.82;5.13;;;;;;;;;;4941096;28;20031;-63
2023/06/21 09:04:55;;;;;;;10.48;5.20;;;;;;;;;;4958252;28;20467;-65
2023/06/21 09:07:21;;;;;;;9.10;4.55;;;;;;;;;;4953792;28;20027;-64
2023/06/21 09:09:47;;;;;;;8.35;5.18;;;;;;;;;;4953319;28;20023;-65
2023/06/21 09:12:13;;;;;;;7.72;4.72;;;;;;;;;;4952273;28;20042;-63
2023/06/21 09:14:39;;;;;;;9.55;5.15;;;;;;;;;;4952702;28;20023;-63
2023/06/21 09:17:05;;;;;;;10.90;4.78;;;;;;;;;;4958593;28;20027;-64
2023/06/21 09:19:30;;;;;;;;;;;;;;;;;;4955552;28;20446;-64
2023/06/21 09:21:58;;;;;;;10.90;5.13;;;;;;;;;;4952334;29;19950;-65
2023/06/21 09:24:24;;;;;;;8.82;4.78;;;;;;;;;;4952700;28;20107;-65
2023/06/21 09:26:49;;;;;;;8.63;4.73;;;;;;;;;;4951505;28;20110;-64
2023/06/21 09:29:15;;;;;;;9.93;4.75;;;;;;;;;;4953357;28;20059;-64
2023/06/21 09:31:40;;;;;;;8.80;4.93;;;;;;;;;;4942593;28;20404;-64
2023/06/21 09:34:05;;;;;;;9.95;4.72;;;;;;;;;;4960043;28;20102;-63
2023/06/21 09:36:30;;;;;;;11.32;5.05;;;;;;;;;;4972169;28;20027;-64
2023/06/21 09:39:08;;;;;;;9.57;5.00;;;;;;;;;;4935833;28;20036;-64
2023/06/21 09:41:33;;;;;;;8.95;4.95;;;;;;;;;;4933497;29;20047;-64
2023/06/21 09:43:59;;;;;;;11.20;5.63;;;;;;;;;;4932184;29;20117;-65
2023/06/21 09:46:24;;;;;;;9.50;5.40;;;;;;;;;;4951815;28;20554;-64
2023/06/21 09:48:49;;;;;;;9.48;5.20;;;;;;;;;;4960555;28;20026;-64
2023/06/21 09:51:14;;;;;;;7.57;4.90;;;;;;;;;;4944373;28;20670;-65
2023/06/21 09:53:44;;;;;;;11.30;5.10;;;;;;;;;;4931706;29;20023;-64
2023/06/21 09:56:11;;;;;;;7.82;4.53;;;;;;;;;;4936561;29;20503;-65
2023/06/21 09:58:40;;;;;;;10.43;5.15;;;;;;;;;;4939351;29;20090;-64
2023/06/21 10:01:06;;;;;;;9.38;5.22;;;;;;;;;;4942642;28;20508;-63
2023/06/21 10:03:32;;;;;;;9.70;5.53;;;;;;;;;;4932815;29;20031;-63
2023/06/21 10:05:58;;;;;;;11.07;5.65;;;;;;;;;;4955984;28;20019;-62
2023/06/21 10:08:25;;;;;;;10.93;5.28;;;;;;;;;;4973875;28;20434;-63
2023/06/21 10:10:50;;;;;;;9.77;5.07;;;;;;;;;;4975203;28;20054;-63
2023/06/21 10:13:15;;;;;;;7.97;5.13;;;;;;;;;;4949928;28;20495;-64
2023/06/21 10:15:44;;;;;;;8.27;5.10;;;;;;;;;;4945211;29;20038;-64
2023/06/21 10:18:12;;;;;;;7.70;5.25;;;;;;;;;;4955695;28;21085;-64
2023/06/21 10:20:38;;;;;;;8.73;5.25;;;;;;;;;;4951991;28;20023;-64
2023/06/21 10:23:04;;;;;;;9.30;5.20;;;;;;;;;;4962953;28;20031;-64
2023/06/21 10:25:30;;;;;;;9.15;4.82;;;;;;;;;;4941603;28;20053;-64
2023/06/21 10:27:56;;;;;;;10.93;5.70;;;;;;;;;;4958839;28;20542;-64
2023/06/21 10:30:22;;;;;;;8.45;5.50;;;;;;;;;;4955842;28;20027;-64
2023/06/21 10:32:48;;;;;;;10.38;5.60;;;;;;;;;;4955046;28;20024;-63
2023/06/21 10:35:17;;;;;;;9.30;5.40;;;;;;;;;;4955522;28;20027;-67
2023/06/21 10:37:58;;;;;;;9.20;5.55;;;;;;;;;;4955648;28;20035;-65
2023/06/21 10:40:24;;;;;;;9.05;5.82;;;;;;;;;;4960358;28;20022;-65
2023/06/21 10:42:50;;;;;;;9.95;5.90;;;;;;;;;;4963878;28;20038;-65
2023/06/21 10:45:15;;;;;;;10.93;5.38;;;;;;;;;;4966661;28;20015;-64
2023/06/21 10:47:41;;;;;;;12.13;5.95;;;;;;;;;;4974807;28;20027;-65
2023/06/21 10:50:06;;;;;;;10.97;5.57;;;;;;;;;;4974766;28;20027;-64
2023/06/21 10:52:32;;;;;;;9.32;6.10;;;;;;;;;;4973927;28;20463;-65
2023/06/21 10:54:57;;;;;;;;;;;;;;;;;;4974440;28;20027;-65
2023/06/21 10:57:29;;;;;;;11.40;6.20;;;;;;;;;;4963400;28;19924;-64
2023/06/21 10:59:55;;;;;;;11.73;5.80;;;;;;;;;;4954733;28;20052;-63
2023/06/21 11:02:21;;;;;;;10.27;6.00;;;;;;;;;;4961068;28;20027;-65
2023/06/21 11:05:05;;;;;;;8.73;5.95;;;;;;;;;;4966106;28;20022;-64
2023/06/21 11:07:30;;;;;;;8.77;5.97;;;;;;;;;;4973869;28;20499;-65
2023/06/21 11:10:02;;;;;;;9.10;5.82;;;;;;;;;;4958499;28;20563;-65
2023/06/21 11:12:27;;;;;;;9.82;6.15;;;;;;;;;;4965420;28;20023;-65
2023/06/21 11:14:52;;;;;;;9.60;6.10;;;;;;;;;;4962125;28;20036;-64
2023/06/21 11:17:23;;;;;;;7.85;5.72;;;;;;;;;;4956568;28;20029;-64
2023/06/21 11:19:48;;;;;;;9.38;6.00;;;;;;;;;;4957146;28;20020;-64
2023/06/21 11:22:14;;;;;;;10.50;6.13;;;;;;;;;;4955291;28;20028;-63
2023/06/21 11:24:48;;;;;;;8.50;5.43;;;;;;;;;;4967107;28;20023;-64
2023/06/21 11:27:13;;;;;;;10.32;6.00;;;;;;;;;;4973675;28;20023;-64
2023/06/21 11:29:39;;;;;;;10.07;6.03;;;;;;;;;;4973821;28;20038;-65
2023/06/21 11:32:12;;;;;;;9.23;6.10;;;;;;;;;;4973651;28;20093;-65
2023/06/21 11:34:49;;;;;;;6.95;5.43;;;;;;;;;;4973692;28;20023;-66
2023/06/21 11:37:32;;;;;;;8.85;5.72;;;;;;;;;;4962780;28;20083;-65
2023/06/21 11:40:01;;;;;;;10.40;5.43;;;;;;;;;;4973693;28;20023;-65
2023/06/21 11:42:31;;;;;;;9.60;5.75;;;;;;;;;;4973216;28;20359;-65
2023/06/21 11:44:56;;;;;;;8.20;5.28;;;;;;;;;;4973553;28;20045;-65
2023/06/21 11:47:22;;;;;;;8.30;5.73;;;;;;;;;;4973341;28;20367;-65
2023/06/21 11:49:48;;;;;;;8.10;5.10;;;;;;;;;;4973372;28;20031;-64
2023/06/21 11:52:13;;;;;;;9.48;5.90;;;;;;;;;;4963244;28;20052;-64
2023/06/21 11:54:38;;;;;;;10.47;5.50;;;;;;;;;;4965210;28;20062;-65
2023/06/21 11:57:05;;;;;;;9.55;6.03;;;;;;;;;;4973632;28;20452;-65
2023/06/21 11:59:31;;;;;;;8.75;5.30;;;;;;;;;;4973479;28;20101;-64
2023/06/21 12:02:01;;;;;;;9.77;5.80;;;;;;;;;;4973421;28;20379;-65
2023/06/21 12:04:26;;;;;;;9.85;5.60;;;;;;;;;;4973703;28;20019;-64
2023/06/21 12:06:53;;;;;;;10.37;5.43;;;;;;;;;;4969394;28;20076;-64
2023/06/21 12:09:18;;;;;;;8.52;5.32;;;;;;;;;;4965129;28;20019;-64
2023/06/21 12:11:44;;;;;;;9.30;6.27;;;;;;;;;;4972663;28;20050;-64
2023/06/21 12:14:10;;;;;;;10.07;5.80;;;;;;;;;;4953841;28;20050;-66
2023/06/21 12:16:35;;;;;;;9.50;6.00;;;;;;;;;;4961153;28;20041;-64
2023/06/21 12:19:00;;;;;;;9.55;5.57;;;;;;;;;;4961935;28;20026;-64
2023/06/21 12:21:26;;;;;;;9.63;5.53;;;;;;;;;;4963256;28;20027;-62
2023/06/21 12:23:56;;;;;;;8.67;5.80;;;;;;;;;;4972018;28;20023;-65
2023/06/21 12:26:23;;;;;;;8.75;5.22;;;;;;;;;;4973193;28;20023;-63
2023/06/21 12:28:48;;;;;;;9.65;5.22;;;;;;;;;;4972876;28;20442;-65
2023/06/21 12:31:17;;;;;;;9.20;5.20;;;;;;;;;;4973020;28;20031;-65
2023/06/21 12:33:42;;;;;;;8.27;5.07;;;;;;;;;;4961619;28;20032;-62
2023/06/21 12:36:20;;;;;;;8.07;4.60;;;;;;;;;;4961760;28;20042;-64
2023/06/21 12:38:49;;;;;;;11.32;5.55;;;;;;;;;;4953129;28;20537;-63
2023/06/21 12:41:18;;;;;;;9.40;5.20;;;;;;;;;;4953392;28;20498;-63
2023/06/21 12:43:44;;;;;;;7.45;5.13;;;;;;;;;;4953019;28;20054;-64
2023/06/21 12:46:10;;;;;;;9.80;5.07;;;;;;;;;;4953536;28;20035;-64
2023/06/21 12:48:36;;;;;;;9.70;5.10;;;;;;;;;;4940038;28;20027;-64
2023/06/21 12:51:01;;;;;;;9.25;5.22;;;;;;;;;;4952457;28;20562;-64
2023/06/21 12:53:35;;;;;;;6.85;4.53;;;;;;;;;;4961634;28;20019;-64
2023/06/21 12:56:07;;;;;;;7.85;5.03;;;;;;;;;;4971752;28;20088;-64
2023/06/21 12:58:32;;;;;;;7.07;4.50;;;;;;;;;;4964647;28;20031;-64
2023/06/21 13:00:59;;;;;;;8.83;4.90;;;;;;;;;;4955754;28;20027;-63
2023/06/21 13:03:24;;;;;;;7.43;4.90;;;;;;;;;;4946565;28;20044;-63
2023/06/21 13:05:49;;;;;;;10.52;4.78;;;;;;;;;;4952347;28;20023;-64
2023/06/21 13:08:14;;;;;;;8.68;4.28;;;;;;;;;;4948532;29;20043;-65
2023/06/21 13:10:39;;;;;;;7.95;4.47;;;;;;;;;;4937067;28;20598;-65
2023/06/21 13:13:04;;;;;;;7.30;4.50;;;;;;;;;;4948569;28;20035;-64
2023/06/21 13:15:29;;;;;;;6.57;4.43;;;;;;;;;;4947898;28;20023;-64
2023/06/21 13:17:56;;;;;;;7.13;4.33;;;;;;;;;;4956460;28;20042;-65
2023/06/21 13:20:21;;;;;;;7.85;4.18;;;;;;;;;;4960746;28;20078;-65
2023/06/21 13:22:46;;;;;;;8.05;5.15;;;;;;;;;;4929499;29;20028;-65
2023/06/21 13:25:11;;;;;;;6.03;4.07;;;;;;;;;;4928860;29;20423;-64
2023/06/21 13:27:37;;;;;;;9.85;4.30;;;;;;;;;;4953197;28;20030;-63
2023/06/21 13:30:04;;;;;;;9.35;4.50;;;;;;;;;;4963120;28;20054;-64
2023/06/21 13:32:29;;;;;;;6.93;4.45;;;;;;;;;;4968464;28;20022;-65
2023/06/21 13:34:54;;;;;;;8.20;4.23;;;;;;;;;;4968997;28;20015;-64
2023/06/21 13:37:20;;;;;;;7.43;4.30;;;;;;;;;;4968032;28;20113;-66
2023/06/21 13:39:45;;;;;;;8.07;4.40;;;;;;;;;;4960948;28;20082;-65
2023/06/21 13:42:10;;;;;;;5.75;3.90;;;;;;;;;;4948907;28;20035;-65
2023/06/21 13:44:35;;;;;;;7.15;3.92;;;;;;;;;;4963491;28;20030;-65
2023/06/21 13:47:00;;;;;;;6.80;3.90;;;;;;;;;;4964064;28;20042;-65
2023/06/21 13:49:25;;;;;;;5.45;3.45;;;;;;;;;;4972487;28;20031;-63
2023/06/21 13:51:51;;;;;;;8.43;4.13;;;;;;;;;;4972038;28;20019;-63
2023/06/21 13:54:16;;;;;;;7.45;3.72;;;;;;;;;;4972070;28;20126;-64
2023/06/21 13:56:41;;;;;;;7.23;4.10;;;;;;;;;;4950838;28;20474;-64
2023/06/21 13:59:07;;;;;;;9.47;3.93;;;;;;;;;;4967297;28;20062;-64
2023/06/21 14:01:32;;;;;;;5.82;3.72;;;;;;;;;;4951956;28;20031;-65
2023/06/21 14:03:58;;;;;;;6.80;3.83;;;;;;;;;;4954221;29;20035;-64
2023/06/21 14:06:23;;;;;;;7.40;3.83;;;;;;;;;;4953071;28;20402;-64
2023/06/21 14:08:48;;;;;;;7.87;4.10;;;;;;;;;;4963401;28;20610;-64
2023/06/21 14:11:13;;;;;;;7.07;3.67;;;;;;;;;;4959224;28;20032;-63
2023/06/21 14:13:38;;;;;;;6.00;3.63;;;;;;;;;;4960536;28;20026;-63
2023/06/21 14:16:03;;;;;;;6.87;4.40;;;;;;;;;;4955688;28;20023;-66
2023/06/21 14:18:28;;;;;;;8.25;4.10;;;;;;;;;;4966959;28;20031;-64
2023/06/21 14:20:54;;;;;;;6.45;3.83;;;;;;;;;;4975177;28;20023;-65
2023/06/21 14:23:21;;;;;;;5.80;3.72;;;;;;;;;;4974184;28;20018;-65
2023/06/21 14:25:46;;;;;;;6.97;4.35;;;;;;;;;;4975212;28;20018;-65
2023/06/21 14:28:12;;;;;;;8.07;3.70;;;;;;;;;;4975195;28;20590;-65
2023/06/21 14:30:37;;;;;;;8.07;3.75;;;;;;;;;;4962317;28;20019;-64
2023/06/21 14:33:02;;;;;;;7.18;3.65;;;;;;;;;;4970504;28;20026;-64
2023/06/21 14:35:27;;;;;;;7.57;4.37;;;;;;;;;;4962814;28;20097;-65